Time;durP1;ratioP1;P1;durP2;ratioP2;P2;SDS_P1;SDS_P2;PMS_P1;PMS_P2;Temp;Humidity;BMP_temperature;BMP_pressure;BME280_temperature;BME280_humidity;BME280_pressure;Samples;Min_cycle;Max_cycle;Signal;HPM_P1;HPM_P2
2022/02/17 00:01:15;;;;;;;0.30;0.30;;;;;;;;;;2068437;28;20026;-64
2022/02/17 00:02:35;;;;;;;0.65;0.60;;;;;;;;;;2068674;28;20109;-64
2022/02/17 00:03:54;;;;;;;0.65;0.40;;;;;;;;;;2067588;28;20025;-64
2022/02/17 00:05:13;;;;;;;0.40;0.40;;;;;;;;;;2067005;28;20400;-64
2022/02/17 00:06:32;;;;;;;0.60;0.50;;;;;;;;;;2067907;28;20109;-64
2022/02/17 00:07:51;;;;;;;0.68;0.40;;;;;;;;;;2067861;28;20042;-66
2022/02/17 00:09:10;;;;;;;1.65;0.40;;;;;;;;;;2070820;28;20022;-63
2022/02/17 00:10:30;;;;;;;0.43;0.38;;;;;;;;;;2066930;28;20622;-64
2022/02/17 00:11:49;;;;;;;0.95;0.40;;;;;;;;;;2065238;28;20039;-64
2022/02/17 00:13:08;;;;;;;1.58;0.40;;;;;;;;;;2067241;28;20031;-64
2022/02/17 00:14:27;;;;;;;0.60;0.60;;;;;;;;;;2068974;28;20506;-64
2022/02/17 00:15:46;;;;;;;0.30;0.30;;;;;;;;;;2067725;28;20046;-64
2022/02/17 00:17:05;;;;;;;0.57;0.45;;;;;;;;;;2066354;28;20078;-64
2022/02/17 00:18:24;;;;;;;1.00;0.40;;;;;;;;;;2068742;28;20038;-64
2022/02/17 00:19:43;;;;;;;0.47;0.40;;;;;;;;;;2066314;28;20042;-64
2022/02/17 00:21:02;;;;;;;0.40;0.40;;;;;;;;;;2067558;28;20034;-65
2022/02/17 00:22:21;;;;;;;0.40;0.40;;;;;;;;;;2066961;28;20038;-65
2022/02/17 00:23:39;;;;;;;0.38;0.35;;;;;;;;;;2067772;28;20038;-64
2022/02/17 00:24:59;;;;;;;0.57;0.30;;;;;;;;;;2068283;28;20042;-64
2022/02/17 00:26:17;;;;;;;0.77;0.40;;;;;;;;;;2067633;28;20400;-63
2022/02/17 00:27:37;;;;;;;0.32;0.32;;;;;;;;;;2067862;28;20019;-64
2022/02/17 00:28:59;;;;;;;0.60;0.50;;;;;;;;;;2068412;28;20022;-64
2022/02/17 00:30:18;;;;;;;0.30;0.30;;;;;;;;;;2066692;28;20046;-64
2022/02/17 00:31:38;;;;;;;1.65;0.50;;;;;;;;;;2068257;28;20042;-64
2022/02/17 00:32:57;;;;;;;1.25;0.50;;;;;;;;;;2067214;28;20034;-66
2022/02/17 00:34:16;;;;;;;0.50;0.50;;;;;;;;;;2067668;28;20481;-64
2022/02/17 00:35:35;;;;;;;0.65;0.50;;;;;;;;;;2067211;28;20046;-63
2022/02/17 00:36:54;;;;;;;0.55;0.55;;;;;;;;;;2067708;28;20034;-63
2022/02/17 00:38:13;;;;;;;1.20;0.40;;;;;;;;;;2067744;28;20038;-63
2022/02/17 00:39:33;;;;;;;0.47;0.40;;;;;;;;;;2066744;28;20046;-62
2022/02/17 00:40:52;;;;;;;0.38;0.38;;;;;;;;;;2067441;28;20109;-64
2022/02/17 00:42:10;;;;;;;0.52;0.40;;;;;;;;;;2067721;28;20026;-64
2022/02/17 00:43:29;;;;;;;0.82;0.40;;;;;;;;;;2066957;28;20034;-62
2022/02/17 00:44:50;;;;;;;0.40;0.40;;;;;;;;;;2066860;28;20018;-62
2022/02/17 00:46:09;;;;;;;0.68;0.45;;;;;;;;;;2066890;28;20113;-63
2022/02/17 00:47:28;;;;;;;0.40;0.40;;;;;;;;;;2067693;28;20117;-63
2022/02/17 00:48:47;;;;;;;0.60;0.47;;;;;;;;;;2067505;28;20392;-65
2022/02/17 00:50:06;;;;;;;0.85;0.45;;;;;;;;;;2067042;28;20059;-63
2022/02/17 00:51:25;;;;;;;0.50;0.50;;;;;;;;;;2066574;28;20030;-63
2022/02/17 00:52:44;;;;;;;0.43;0.40;;;;;;;;;;2067236;28;20412;-63
2022/02/17 00:54:03;;;;;;;3.13;0.40;;;;;;;;;;2067394;28;20507;-63
2022/02/17 00:55:23;;;;;;;0.82;0.60;;;;;;;;;;2066626;28;20073;-63
2022/02/17 00:56:41;;;;;;;0.90;0.43;;;;;;;;;;2067349;28;20031;-63
2022/02/17 00:58:00;;;;;;;0.43;0.30;;;;;;;;;;2066906;28;20436;-63
2022/02/17 00:59:19;;;;;;;0.45;0.40;;;;;;;;;;2067065;28;21157;-63
2022/02/17 01:00:38;;;;;;;0.35;0.35;;;;;;;;;;2066803;28;20038;-62
2022/02/17 01:01:57;;;;;;;0.43;0.40;;;;;;;;;;2066951;28;20038;-63
2022/02/17 01:03:16;;;;;;;1.80;0.43;;;;;;;;;;2066274;28;20042;-63
2022/02/17 01:04:35;;;;;;;0.30;0.30;;;;;;;;;;2067424;28;20034;-63
2022/02/17 01:05:55;;;;;;;0.35;0.35;;;;;;;;;;2066303;28;20113;-62
2022/02/17 01:07:14;;;;;;;0.52;0.52;;;;;;;;;;2066916;28;20030;-63
2022/02/17 01:08:33;;;;;;;1.17;0.47;;;;;;;;;;2067709;28;20470;-65
2022/02/17 01:09:51;;;;;;;0.47;0.43;;;;;;;;;;2063685;28;20022;-64
2022/02/17 01:11:10;;;;;;;1.42;0.30;;;;;;;;;;2066633;28;20119;-63
2022/02/17 01:12:29;;;;;;;0.75;0.70;;;;;;;;;;2067387;28;20072;-64
2022/02/17 01:13:48;;;;;;;0.88;0.50;;;;;;;;;;2066685;28;20034;-63
2022/02/17 01:15:07;;;;;;;1.33;0.28;;;;;;;;;;2066627;28;20105;-63
2022/02/17 01:16:26;;;;;;;1.52;0.30;;;;;;;;;;2065921;28;20034;-63
2022/02/17 01:17:45;;;;;;;0.88;0.45;;;;;;;;;;2067362;28;20487;-63
2022/02/17 01:19:05;;;;;;;0.20;0.20;;;;;;;;;;2067252;28;20117;-64
2022/02/17 01:20:23;;;;;;;1.15;0.40;;;;;;;;;;2066694;28;20042;-63
2022/02/17 01:21:42;;;;;;;1.05;0.30;;;;;;;;;;2067063;28;20042;-63
2022/02/17 01:23:01;;;;;;;0.65;0.40;;;;;;;;;;2066425;28;20030;-64
2022/02/17 01:24:20;;;;;;;1.75;0.40;;;;;;;;;;2066681;28;20022;-64
2022/02/17 01:25:39;;;;;;;0.55;0.35;;;;;;;;;;2067192;28;20069;-63
2022/02/17 01:26:58;;;;;;;0.20;0.20;;;;;;;;;;2069102;28;20062;-64
2022/02/17 01:28:17;;;;;;;0.43;0.30;;;;;;;;;;2067942;28;20022;-64
2022/02/17 01:29:36;;;;;;;0.95;0.30;;;;;;;;;;2070747;28;20107;-63
2022/02/17 01:30:54;;;;;;;0.98;0.43;;;;;;;;;;2066726;28;20034;-64
2022/02/17 01:32:14;;;;;;;1.55;0.30;;;;;;;;;;2068557;28;20070;-64
2022/02/17 01:33:34;;;;;;;0.38;0.30;;;;;;;;;;2069053;28;20272;-63
2022/02/17 01:34:53;;;;;;;0.40;0.40;;;;;;;;;;2069893;28;20035;-64
2022/02/17 01:36:12;;;;;;;0.30;0.30;;;;;;;;;;2067532;28;20060;-64
2022/02/17 01:37:31;;;;;;;0.30;0.30;;;;;;;;;;2068324;28;20030;-64
2022/02/17 01:38:51;;;;;;;0.50;0.50;;;;;;;;;;2067640;28;20031;-65
2022/02/17 01:40:10;;;;;;;0.20;0.20;;;;;;;;;;2067428;28;20030;-64
2022/02/17 01:41:29;;;;;;;0.35;0.30;;;;;;;;;;2073483;28;20108;-64
2022/02/17 01:42:48;;;;;;;0.73;0.40;;;;;;;;;;2071050;28;20173;-64
2022/02/17 01:44:07;;;;;;;0.82;0.40;;;;;;;;;;2068776;28;20022;-64
2022/02/17 01:45:26;;;;;;;1.00;0.47;;;;;;;;;;2068939;28;20030;-64
2022/02/17 01:46:45;;;;;;;0.43;0.30;;;;;;;;;;2067118;28;20034;-65
2022/02/17 01:48:04;;;;;;;0.47;0.47;;;;;;;;;;2068909;28;20054;-65
2022/02/17 01:49:23;;;;;;;0.25;0.25;;;;;;;;;;2068583;28;20030;-64
2022/02/17 01:50:41;;;;;;;0.45;0.30;;;;;;;;;;2067872;28;20026;-65
2022/02/17 01:52:00;;;;;;;0.70;0.40;;;;;;;;;;2066659;28;20033;-64
2022/02/17 01:53:20;;;;;;;1.13;0.40;;;;;;;;;;2068483;28;20050;-65
2022/02/17 01:54:39;;;;;;;0.30;0.30;;;;;;;;;;2067646;28;20039;-64
2022/02/17 01:55:58;;;;;;;0.35;0.35;;;;;;;;;;2067832;28;20034;-63
2022/02/17 01:57:27;;;;;;;1.10;0.50;;;;;;;;;;2066899;28;20038;-63
2022/02/17 01:58:47;;;;;;;1.45;0.35;;;;;;;;;;2067521;28;20513;-63
2022/02/17 02:00:06;;;;;;;0.68;0.43;;;;;;;;;;2068627;28;20030;-64
2022/02/17 02:01:25;;;;;;;0.40;0.40;;;;;;;;;;2067330;28;20132;-63
2022/02/17 02:02:46;;;;;;;0.30;0.30;;;;;;;;;;2068220;28;20416;-62
2022/02/17 02:04:05;;;;;;;0.35;0.35;;;;;;;;;;2068088;28;20026;-63
2022/02/17 02:05:24;;;;;;;0.40;0.40;;;;;;;;;;2068924;28;20030;-64
2022/02/17 02:06:43;;;;;;;0.40;0.40;;;;;;;;;;2067362;28;20066;-64
2022/02/17 02:08:02;;;;;;;0.55;0.50;;;;;;;;;;2068359;28;20109;-63
2022/02/17 02:09:21;;;;;;;0.70;0.40;;;;;;;;;;2067739;28;20109;-64
2022/02/17 02:10:40;;;;;;;2.63;0.40;;;;;;;;;;2067871;28;20014;-64
2022/02/17 02:11:59;;;;;;;0.50;0.50;;;;;;;;;;2068646;28;20026;-64
2022/02/17 02:13:18;;;;;;;1.27;0.50;;;;;;;;;;2068489;28;20030;-64
2022/02/17 02:14:48;;;;;;;1.08;0.50;;;;;;;;;;2067964;28;20030;-64
2022/02/17 02:16:07;;;;;;;0.30;0.30;;;;;;;;;;2068356;28;20030;-64
2022/02/17 02:17:28;;;;;;;0.70;0.70;;;;;;;;;;2067225;28;20042;-64
2022/02/17 02:18:47;;;;;;;1.13;0.30;;;;;;;;;;2067567;28;20065;-64
2022/02/17 02:20:07;;;;;;;0.65;0.38;;;;;;;;;;2066700;28;20026;-63
2022/02/17 02:21:26;;;;;;;1.85;0.40;;;;;;;;;;2067600;28;20034;-63
2022/02/17 02:22:46;;;;;;;0.40;0.40;;;;;;;;;;2067825;28;20070;-63
2022/02/17 02:24:05;;;;;;;0.60;0.60;;;;;;;;;;2068119;28;20480;-63
2022/02/17 02:25:25;;;;;;;0.60;0.60;;;;;;;;;;2067171;28;20566;-63
2022/02/17 02:26:44;;;;;;;0.30;0.30;;;;;;;;;;2067867;28;20069;-63
2022/02/17 02:28:03;;;;;;;0.40;0.40;;;;;;;;;;2068307;28;20029;-63
2022/02/17 02:29:22;;;;;;;0.40;0.40;;;;;;;;;;2068020;28;20464;-64
2022/02/17 02:30:41;;;;;;;0.40;0.40;;;;;;;;;;2068321;28;20027;-63
2022/02/17 02:32:00;;;;;;;0.90;0.50;;;;;;;;;;2067266;28;20442;-63
2022/02/17 02:33:19;;;;;;;0.40;0.40;;;;;;;;;;2068028;28;20034;-63
2022/02/17 02:34:38;;;;;;;0.30;0.30;;;;;;;;;;2065250;28;20037;-64
2022/02/17 02:35:57;;;;;;;0.20;0.20;;;;;;;;;;2068467;28;20046;-63
2022/02/17 02:37:16;;;;;;;0.40;0.30;;;;;;;;;;2067078;28;20496;-63
2022/02/17 02:38:35;;;;;;;0.40;0.40;;;;;;;;;;2066995;28;20038;-64
2022/02/17 02:39:55;;;;;;;0.50;0.50;;;;;;;;;;2069047;28;20384;-64
2022/02/17 02:41:13;;;;;;;0.40;0.40;;;;;;;;;;2068998;28;20030;-63
2022/02/17 02:42:32;;;;;;;0.40;0.40;;;;;;;;;;2066570;28;20547;-63
2022/02/17 02:43:51;;;;;;;0.57;0.57;;;;;;;;;;2068570;28;20415;-63
2022/02/17 02:45:10;;;;;;;0.80;0.52;;;;;;;;;;2067451;28;20019;-63
2022/02/17 02:46:29;;;;;;;0.50;0.40;;;;;;;;;;2066848;28;20039;-63
2022/02/17 02:47:48;;;;;;;1.20;0.50;;;;;;;;;;2063244;28;20054;-63
2022/02/17 02:49:06;;;;;;;0.50;0.50;;;;;;;;;;2072166;28;20026;-63
2022/02/17 02:50:25;;;;;;;0.93;0.80;;;;;;;;;;2070220;28;20030;-63
2022/02/17 02:51:44;;;;;;;0.30;0.30;;;;;;;;;;2067296;28;20023;-63
2022/02/17 02:53:04;;;;;;;0.50;0.50;;;;;;;;;;2068576;28;20042;-63
2022/02/17 02:54:23;;;;;;;0.40;0.40;;;;;;;;;;2069313;28;20038;-64
2022/02/17 02:55:44;;;;;;;1.05;0.38;;;;;;;;;;2068515;28;20030;-63
2022/02/17 02:57:03;;;;;;;0.73;0.73;;;;;;;;;;2071643;28;20045;-63
2022/02/17 02:58:23;;;;;;;0.55;0.50;;;;;;;;;;2069374;28;20042;-63
2022/02/17 02:59:44;;;;;;;0.63;0.40;;;;;;;;;;2067730;28;20034;-63
2022/02/17 03:01:03;;;;;;;1.98;0.50;;;;;;;;;;2068823;28;20030;-63
2022/02/17 03:02:22;;;;;;;0.30;0.30;;;;;;;;;;2068297;28;20039;-62
2022/02/17 03:03:41;;;;;;;0.40;0.40;;;;;;;;;;2068251;28;20034;-63
2022/02/17 03:05:00;;;;;;;0.30;0.30;;;;;;;;;;2068629;28;20431;-62
2022/02/17 03:06:18;;;;;;;0.40;0.40;;;;;;;;;;2068311;28;20400;-63
2022/02/17 03:07:37;;;;;;;2.03;0.38;;;;;;;;;;2067398;28;20033;-63
2022/02/17 03:08:57;;;;;;;2.30;0.35;;;;;;;;;;2068905;28;20029;-63
2022/02/17 03:10:16;;;;;;;0.40;0.40;;;;;;;;;;2067949;28;20022;-63
2022/02/17 03:11:35;;;;;;;0.30;0.30;;;;;;;;;;2068373;28;20101;-61
2022/02/17 03:12:54;;;;;;;0.55;0.47;;;;;;;;;;2067287;28;20129;-62
2022/02/17 03:14:13;;;;;;;0.60;0.40;;;;;;;;;;2065655;28;20496;-63
2022/02/17 03:15:32;;;;;;;0.40;0.30;;;;;;;;;;2068787;28;20113;-61
2022/02/17 03:16:51;;;;;;;0.38;0.38;;;;;;;;;;2068535;28;20022;-63
2022/02/17 03:18:10;;;;;;;0.65;0.65;;;;;;;;;;2068012;28;20038;-62
2022/02/17 03:19:29;;;;;;;0.63;0.63;;;;;;;;;;2070303;28;20400;-62
2022/02/17 03:20:48;;;;;;;0.52;0.50;;;;;;;;;;2068595;28;20035;-62
2022/02/17 03:22:07;;;;;;;0.50;0.50;;;;;;;;;;2067783;28;20592;-62
2022/02/17 03:23:26;;;;;;;0.40;0.40;;;;;;;;;;2067970;28;20496;-63
2022/02/17 03:24:45;;;;;;;0.60;0.60;;;;;;;;;;2068703;28;20026;-62
2022/02/17 03:26:04;;;;;;;0.50;0.50;;;;;;;;;;2067191;28;20404;-63
2022/02/17 03:27:23;;;;;;;0.50;0.50;;;;;;;;;;2066338;28;20034;-64
2022/02/17 03:28:42;;;;;;;0.50;0.47;;;;;;;;;;2067403;28;20034;-63
2022/02/17 03:30:01;;;;;;;0.80;0.50;;;;;;;;;;2068272;28;20030;-62
2022/02/17 03:31:20;;;;;;;0.90;0.50;;;;;;;;;;2066831;28;20481;-63
2022/02/17 03:32:39;;;;;;;0.50;0.50;;;;;;;;;;2067270;28;20488;-63
2022/02/17 03:33:58;;;;;;;0.98;0.50;;;;;;;;;;2068195;28;20469;-62
2022/02/17 03:35:17;;;;;;;0.40;0.40;;;;;;;;;;2067971;28;20022;-63
2022/02/17 03:36:36;;;;;;;0.45;0.45;;;;;;;;;;2068312;28;20420;-63
2022/02/17 03:37:55;;;;;;;0.82;0.40;;;;;;;;;;2065258;28;20480;-63
2022/02/17 03:39:14;;;;;;;0.95;0.40;;;;;;;;;;2068576;28;20038;-64
2022/02/17 03:40:33;;;;;;;0.30;0.30;;;;;;;;;;2067282;28;20121;-64
2022/02/17 03:41:52;;;;;;;0.63;0.52;;;;;;;;;;2066794;28;20038;-64
2022/02/17 03:43:11;;;;;;;0.30;0.30;;;;;;;;;;2066912;28;20034;-64
2022/02/17 03:44:30;;;;;;;0.40;0.40;;;;;;;;;;2066866;28;20038;-64
2022/02/17 03:45:49;;;;;;;0.47;0.47;;;;;;;;;;2067903;28;20097;-64
2022/02/17 03:47:08;;;;;;;0.65;0.43;;;;;;;;;;2067574;28;20101;-64
2022/02/17 03:48:27;;;;;;;0.60;0.50;;;;;;;;;;2067075;28;20027;-63
2022/02/17 03:49:46;;;;;;;0.40;0.40;;;;;;;;;;2068485;28;20492;-63
2022/02/17 03:51:05;;;;;;;0.65;0.52;;;;;;;;;;2068322;28;20034;-64
2022/02/17 03:52:25;;;;;;;0.40;0.40;;;;;;;;;;2067452;28;20037;-64
2022/02/17 03:53:44;;;;;;;0.50;0.50;;;;;;;;;;2067181;28;20031;-63
2022/02/17 03:55:04;;;;;;;1.83;0.68;;;;;;;;;;2066655;28;20034;-64
2022/02/17 03:56:23;;;;;;;0.55;0.52;;;;;;;;;;2067345;28;20493;-63
2022/02/17 03:57:44;;;;;;;0.50;0.50;;;;;;;;;;2067830;28;20442;-63
2022/02/17 03:59:08;;;;;;;1.75;0.60;;;;;;;;;;2066522;28;20709;-64
2022/02/17 04:00:26;;;;;;;1.13;0.68;;;;;;;;;;2066977;28;20488;-63
2022/02/17 04:01:45;;;;;;;0.95;0.60;;;;;;;;;;2067649;28;20037;-64
2022/02/17 04:03:04;;;;;;;0.43;0.43;;;;;;;;;;2067140;28;20400;-62
2022/02/17 04:04:23;;;;;;;0.65;0.60;;;;;;;;;;2066977;28;20038;-64
2022/02/17 04:05:42;;;;;;;0.70;0.60;;;;;;;;;;2067188;28;20030;-63
2022/02/17 04:07:01;;;;;;;0.40;0.40;;;;;;;;;;2068113;28;20026;-64
2022/02/17 04:08:20;;;;;;;0.50;0.50;;;;;;;;;;2067890;28;20022;-64
2022/02/17 04:09:39;;;;;;;0.43;0.40;;;;;;;;;;2067568;28;20038;-64
2022/02/17 04:11:02;;;;;;;0.75;0.50;;;;;;;;;;2067694;28;20038;-63
2022/02/17 04:12:21;;;;;;;0.50;0.50;;;;;;;;;;2067889;28;20022;-64
2022/02/17 04:13:40;;;;;;;0.60;0.60;;;;;;;;;;2067932;28;20484;-63
2022/02/17 04:14:59;;;;;;;1.50;0.80;;;;;;;;;;2068054;28;20493;-64
2022/02/17 04:16:19;;;;;;;0.50;0.50;;;;;;;;;;2067520;28;20027;-64
2022/02/17 04:17:37;;;;;;;0.60;0.60;;;;;;;;;;2067079;28;20488;-63
2022/02/17 04:18:57;;;;;;;0.80;0.80;;;;;;;;;;2066827;28;20026;-64
2022/02/17 04:20:16;;;;;;;0.52;0.52;;;;;;;;;;2067978;28;20030;-64
2022/02/17 04:21:35;;;;;;;0.60;0.60;;;;;;;;;;2067747;28;20061;-64
2022/02/17 04:22:54;;;;;;;0.60;0.60;;;;;;;;;;2066816;28;20030;-63
2022/02/17 04:24:13;;;;;;;1.58;0.75;;;;;;;;;;2066232;28;20421;-64
2022/02/17 04:25:32;;;;;;;0.60;0.60;;;;;;;;;;2067616;28;20400;-64
2022/02/17 04:26:51;;;;;;;1.55;0.73;;;;;;;;;;2067634;28;20030;-64
2022/02/17 04:28:10;;;;;;;0.80;0.70;;;;;;;;;;2067577;28;20019;-64
2022/02/17 04:29:29;;;;;;;1.20;0.77;;;;;;;;;;2066887;28;20030;-63
2022/02/17 04:30:48;;;;;;;0.60;0.60;;;;;;;;;;2067219;28;20066;-64
2022/02/17 04:32:07;;;;;;;0.68;0.68;;;;;;;;;;2067537;28;20401;-63
2022/02/17 04:33:26;;;;;;;1.13;0.70;;;;;;;;;;2067004;28;20042;-63
2022/02/17 04:34:45;;;;;;;0.70;0.60;;;;;;;;;;2066458;28;20037;-64
2022/02/17 04:36:04;;;;;;;1.17;0.68;;;;;;;;;;2068205;28;20081;-63
2022/02/17 04:37:23;;;;;;;0.70;0.70;;;;;;;;;;2067137;28;20057;-63
2022/02/17 04:38:42;;;;;;;0.75;0.70;;;;;;;;;;2067112;28;20472;-63
2022/02/17 04:40:01;;;;;;;0.80;0.80;;;;;;;;;;2067139;28;20039;-63
2022/02/17 04:42:57;;;;;;;0.80;0.80;;;;;;;;;;2067608;28;20729;-65
2022/02/17 04:44:17;;;;;;;0.63;0.63;;;;;;;;;;2067007;28;20574;-64
2022/02/17 04:45:36;;;;;;;0.70;0.65;;;;;;;;;;2067056;28;20544;-64
2022/02/17 04:46:55;;;;;;;0.63;0.60;;;;;;;;;;2067028;28;20396;-64
2022/02/17 04:48:14;;;;;;;0.63;0.63;;;;;;;;;;2067224;28;20038;-64
2022/02/17 04:49:33;;;;;;;0.60;0.60;;;;;;;;;;2067070;28;20031;-62
2022/02/17 04:50:52;;;;;;;0.60;0.60;;;;;;;;;;2067739;28;20061;-64
2022/02/17 04:52:11;;;;;;;0.65;0.65;;;;;;;;;;2068601;28;20446;-64
2022/02/17 04:53:31;;;;;;;1.67;0.55;;;;;;;;;;2065916;28;20034;-64
2022/02/17 04:54:50;;;;;;;0.85;0.80;;;;;;;;;;2066685;28;20551;-64
2022/02/17 04:56:09;;;;;;;1.00;0.90;;;;;;;;;;2067906;28;20037;-64
2022/02/17 04:57:28;;;;;;;1.48;0.60;;;;;;;;;;2067255;28;20034;-64
2022/02/17 04:58:47;;;;;;;0.40;0.40;;;;;;;;;;2067027;28;20042;-64
2022/02/17 05:00:06;;;;;;;0.40;0.40;;;;;;;;;;2066445;28;20415;-64
2022/02/17 05:01:25;;;;;;;0.68;0.40;;;;;;;;;;2067049;28;20031;-64
2022/02/17 05:02:44;;;;;;;1.08;0.73;;;;;;;;;;2068124;28;20692;-64
2022/02/17 05:04:03;;;;;;;0.40;0.40;;;;;;;;;;2067246;28;20400;-64
2022/02/17 05:05:22;;;;;;;0.40;0.40;;;;;;;;;;2066974;28;20492;-63
2022/02/17 05:06:41;;;;;;;0.50;0.40;;;;;;;;;;2066902;28;20034;-64
2022/02/17 05:08:00;;;;;;;1.55;0.40;;;;;;;;;;2067396;28;20042;-63
2022/02/17 05:09:19;;;;;;;0.73;0.40;;;;;;;;;;2067446;28;20034;-64
2022/02/17 05:10:38;;;;;;;0.50;0.50;;;;;;;;;;2066885;28;20030;-63
2022/02/17 05:11:57;;;;;;;1.35;0.40;;;;;;;;;;2067344;28;20026;-64
2022/02/17 05:13:16;;;;;;;0.57;0.57;;;;;;;;;;2067539;28;20034;-64
2022/02/17 05:14:35;;;;;;;0.70;0.50;;;;;;;;;;2067062;28;20030;-63
2022/02/17 05:15:54;;;;;;;1.27;0.60;;;;;;;;;;2067307;28;20066;-64
2022/02/17 05:17:13;;;;;;;1.05;0.68;;;;;;;;;;2066224;28;20524;-64
2022/02/17 05:18:32;;;;;;;0.70;0.50;;;;;;;;;;2067027;28;20411;-64
2022/02/17 05:19:50;;;;;;;1.45;0.52;;;;;;;;;;2066426;28;20485;-63
2022/02/17 05:21:09;;;;;;;1.33;0.52;;;;;;;;;;2067162;28;20120;-64
2022/02/17 05:22:28;;;;;;;0.93;0.63;;;;;;;;;;2066951;28;20030;-64
2022/02/17 05:23:47;;;;;;;0.60;0.50;;;;;;;;;;2067439;28;20110;-64
2022/02/17 05:25:07;;;;;;;0.60;0.45;;;;;;;;;;2066896;28;20050;-64
2022/02/17 05:26:25;;;;;;;0.98;0.60;;;;;;;;;;2067470;28;20062;-64
2022/02/17 05:27:45;;;;;;;0.50;0.50;;;;;;;;;;2066909;28;20026;-64
2022/02/17 05:29:04;;;;;;;0.50;0.43;;;;;;;;;;2067829;28;20065;-64
2022/02/17 05:30:23;;;;;;;0.60;0.60;;;;;;;;;;2066221;28;20491;-64
2022/02/17 05:31:42;;;;;;;0.50;0.50;;;;;;;;;;2067483;28;20042;-64
2022/02/17 05:33:05;;;;;;;1.38;0.70;;;;;;;;;;2067708;28;20066;-63
2022/02/17 05:34:24;;;;;;;1.60;0.70;;;;;;;;;;2066186;28;20039;-64
2022/02/17 05:35:43;;;;;;;1.73;1.02;;;;;;;;;;2066243;28;20408;-64
2022/02/17 05:37:02;;;;;;;0.80;0.80;;;;;;;;;;2067614;28;20076;-63
2022/02/17 05:38:21;;;;;;;1.25;0.57;;;;;;;;;;2065963;28;20038;-63
2022/02/17 05:39:40;;;;;;;0.73;0.60;;;;;;;;;;2063121;28;20483;-64
2022/02/17 05:40:58;;;;;;;0.52;0.50;;;;;;;;;;2066124;28;20033;-63
2022/02/17 05:42:17;;;;;;;0.75;0.60;;;;;;;;;;2067508;28;20034;-64
2022/02/17 05:43:36;;;;;;;0.60;0.60;;;;;;;;;;2066308;28;20026;-64
2022/02/17 05:44:55;;;;;;;1.00;0.80;;;;;;;;;;2066059;28;20392;-64
2022/02/17 05:46:14;;;;;;;0.68;0.68;;;;;;;;;;2068559;28;20113;-64
2022/02/17 05:47:33;;;;;;;0.60;0.60;;;;;;;;;;2067350;28;20034;-64
2022/02/17 05:48:52;;;;;;;1.20;0.80;;;;;;;;;;2068647;28;20097;-64
2022/02/17 05:50:11;;;;;;;0.90;0.88;;;;;;;;;;2067250;28;20381;-64
2022/02/17 05:51:30;;;;;;;0.70;0.70;;;;;;;;;;2066451;28;20034;-64
2022/02/17 05:52:50;;;;;;;0.80;0.80;;;;;;;;;;2065998;28;20512;-65
2022/02/17 05:54:09;;;;;;;1.30;0.90;;;;;;;;;;2066757;28;20030;-63
2022/02/17 05:55:28;;;;;;;1.15;0.80;;;;;;;;;;2066385;28;20037;-63
2022/02/17 05:56:46;;;;;;;1.00;1.00;;;;;;;;;;2066554;28;20053;-63
2022/02/17 05:58:05;;;;;;;0.80;0.80;;;;;;;;;;2066709;28;20036;-64
2022/02/17 05:59:24;;;;;;;1.30;1.20;;;;;;;;;;2066226;28;20113;-64
2022/02/17 06:00:43;;;;;;;0.93;0.93;;;;;;;;;;2066402;28;20038;-64
2022/02/17 06:02:02;;;;;;;0.88;0.85;;;;;;;;;;2066203;28;20025;-64
2022/02/17 06:03:21;;;;;;;1.38;1.10;;;;;;;;;;2066479;28;20021;-63
2022/02/17 06:04:43;;;;;;;0.88;0.88;;;;;;;;;;2066124;28;20101;-63
2022/02/17 06:06:02;;;;;;;2.47;0.93;;;;;;;;;;2066445;28;20487;-64
2022/02/17 06:07:21;;;;;;;2.05;1.00;;;;;;;;;;2066728;28;20030;-64
2022/02/17 06:08:40;;;;;;;1.10;1.00;;;;;;;;;;2065366;28;20018;-65
2022/02/17 06:09:59;;;;;;;1.10;1.00;;;;;;;;;;2064800;28;20023;-64
2022/02/17 06:11:18;;;;;;;1.75;1.00;;;;;;;;;;2065630;28;20512;-64
2022/02/17 06:12:41;;;;;;;1.20;0.98;;;;;;;;;;2069344;28;20492;-66
2022/02/17 06:14:00;;;;;;;1.10;0.70;;;;;;;;;;2068932;28;20022;-65
2022/02/17 06:15:20;;;;;;;0.98;0.98;;;;;;;;;;2062770;28;20027;-66
2022/02/17 06:16:39;;;;;;;0.82;0.82;;;;;;;;;;2066230;28;20066;-64
2022/02/17 06:17:58;;;;;;;1.27;1.17;;;;;;;;;;2067603;28;20491;-64
2022/02/17 06:19:16;;;;;;;1.40;1.02;;;;;;;;;;2066503;28;20114;-64
2022/02/17 06:20:35;;;;;;;0.70;0.70;;;;;;;;;;2078792;28;20252;-64
2022/02/17 06:21:54;;;;;;;1.33;0.90;;;;;;;;;;2068661;28;20489;-64
2022/02/17 06:23:13;;;;;;;0.88;0.88;;;;;;;;;;2065391;28;20030;-64
2022/02/17 06:24:32;;;;;;;0.75;0.75;;;;;;;;;;2064420;28;20030;-64
2022/02/17 06:25:51;;;;;;;1.58;0.90;;;;;;;;;;2066018;28;20522;-64
2022/02/17 06:27:10;;;;;;;1.33;1.15;;;;;;;;;;2067767;28;20030;-64
2022/02/17 06:28:29;;;;;;;1.98;0.80;;;;;;;;;;2068228;28;20489;-64
2022/02/17 06:29:48;;;;;;;1.02;0.88;;;;;;;;;;2068266;28;20038;-64
2022/02/17 06:31:07;;;;;;;0.88;0.88;;;;;;;;;;2066340;28;20030;-64
2022/02/17 06:32:26;;;;;;;1.10;0.80;;;;;;;;;;2067797;28;20027;-64
2022/02/17 06:33:45;;;;;;;0.70;0.70;;;;;;;;;;2067365;28;20113;-64
2022/02/17 06:35:04;;;;;;;1.00;1.00;;;;;;;;;;2068175;28;20023;-65
2022/02/17 06:36:23;;;;;;;0.90;0.75;;;;;;;;;;2067416;28;20473;-64
2022/02/17 06:37:42;;;;;;;1.10;1.00;;;;;;;;;;2067286;28;20396;-64
2022/02/17 06:39:01;;;;;;;0.90;0.90;;;;;;;;;;2067514;28;20034;-64
2022/02/17 06:40:20;;;;;;;0.98;0.98;;;;;;;;;;2068844;28;20026;-64
2022/02/17 06:41:39;;;;;;;0.70;0.70;;;;;;;;;;2066670;28;20064;-64
2022/02/17 06:43:05;;;;;;;0.80;0.80;;;;;;;;;;2066223;28;20527;-64
2022/02/17 06:44:24;;;;;;;0.70;0.70;;;;;;;;;;2067785;28;20552;-64
2022/02/17 06:45:43;;;;;;;0.95;0.85;;;;;;;;;;2067011;28;20026;-64
2022/02/17 06:47:03;;;;;;;0.70;0.70;;;;;;;;;;2067974;28;20038;-65
2022/02/17 06:48:22;;;;;;;1.83;0.70;;;;;;;;;;2067470;28;20113;-65
2022/02/17 06:49:41;;;;;;;0.90;0.90;;;;;;;;;;2068607;28;20400;-66
2022/02/17 06:51:00;;;;;;;2.25;0.93;;;;;;;;;;2066265;28;20042;-66
2022/02/17 06:52:19;;;;;;;1.10;1.00;;;;;;;;;;2067337;28;20026;-65
2022/02/17 06:53:38;;;;;;;1.52;0.95;;;;;;;;;;2067950;28;20034;-65
2022/02/17 06:54:57;;;;;;;1.17;1.05;;;;;;;;;;2068146;28;20415;-66
2022/02/17 06:56:16;;;;;;;4.20;1.05;;;;;;;;;;2067219;28;20449;-64
2022/02/17 06:57:36;;;;;;;0.98;0.95;;;;;;;;;;2067834;28;20042;-65
2022/02/17 06:58:54;;;;;;;1.40;1.00;;;;;;;;;;2067101;28;20030;-66
2022/02/17 07:00:14;;;;;;;4.57;1.73;;;;;;;;;;2066731;28;20019;-65
2022/02/17 07:01:33;;;;;;;2.10;1.17;;;;;;;;;;2067217;28;20038;-65
2022/02/17 07:02:53;;;;;;;3.10;1.33;;;;;;;;;;2066573;28;20034;-66
2022/02/17 07:04:12;;;;;;;1.23;0.90;;;;;;;;;;2067659;28;20057;-65
2022/02/17 07:05:31;;;;;;;0.77;0.77;;;;;;;;;;2066764;28;20038;-64
2022/02/17 07:06:49;;;;;;;1.20;1.00;;;;;;;;;;2067765;28;20026;-64
2022/02/17 07:08:08;;;;;;;0.70;0.70;;;;;;;;;;2066928;28;20030;-64
2022/02/17 07:09:27;;;;;;;0.70;0.70;;;;;;;;;;2067758;28;20465;-65
2022/02/17 07:10:55;;;;;;;1.02;0.90;;;;;;;;;;2067647;28;20384;-65
2022/02/17 07:12:14;;;;;;;0.68;0.68;;;;;;;;;;2067576;28;20026;-64
2022/02/17 07:13:33;;;;;;;0.70;0.70;;;;;;;;;;2067139;28;20030;-65
2022/02/17 07:14:56;;;;;;;0.75;0.70;;;;;;;;;;2068316;28;20026;-64
2022/02/17 07:16:15;;;;;;;0.57;0.57;;;;;;;;;;2068666;28;20110;-64
2022/02/17 07:17:36;;;;;;;0.60;0.60;;;;;;;;;;2067215;28;20061;-65
2022/02/17 07:18:54;;;;;;;1.98;1.10;;;;;;;;;;2067802;28;20022;-64
2022/02/17 07:20:13;;;;;;;0.82;0.75;;;;;;;;;;2068177;28;20046;-64
2022/02/17 07:21:32;;;;;;;1.23;1.13;;;;;;;;;;2068041;28;20022;-65
2022/02/17 07:22:51;;;;;;;0.93;0.90;;;;;;;;;;2068222;28;20030;-64
2022/02/17 07:24:10;;;;;;;0.75;0.75;;;;;;;;;;2067931;28;20793;-65
2022/02/17 07:25:29;;;;;;;2.65;0.68;;;;;;;;;;2067436;28;20069;-64
2022/02/17 07:26:48;;;;;;;0.80;0.65;;;;;;;;;;2065322;28;20031;-65
2022/02/17 07:28:07;;;;;;;2.22;0.80;;;;;;;;;;2074201;28;20041;-65
2022/02/17 07:29:27;;;;;;;0.80;0.80;;;;;;;;;;2073308;28;20065;-65
2022/02/17 07:30:46;;;;;;;0.75;0.75;;;;;;;;;;2067138;28;20027;-65
2022/02/17 07:32:06;;;;;;;0.73;0.73;;;;;;;;;;2066921;28;20056;-65
2022/02/17 07:33:25;;;;;;;0.60;0.60;;;;;;;;;;2071352;28;20538;-65
2022/02/17 07:34:43;;;;;;;0.70;0.70;;;;;;;;;;2066797;28;20606;-65
2022/02/17 07:36:03;;;;;;;0.77;0.70;;;;;;;;;;2070124;28;20027;-65
2022/02/17 07:37:22;;;;;;;1.60;1.10;;;;;;;;;;2068906;28;20524;-64
2022/02/17 07:38:41;;;;;;;0.70;0.70;;;;;;;;;;2067107;28;20594;-65
2022/02/17 07:40:00;;;;;;;1.95;0.82;;;;;;;;;;2066337;28;20050;-65
2022/02/17 07:41:18;;;;;;;1.40;0.80;;;;;;;;;;2066537;28;20026;-65
2022/02/17 07:42:38;;;;;;;0.70;0.70;;;;;;;;;;2066221;28;20992;-65
2022/02/17 07:43:58;;;;;;;1.45;0.82;;;;;;;;;;2067146;28;20396;-65
2022/02/17 07:45:17;;;;;;;1.92;0.80;;;;;;;;;;2067704;28;20022;-65
2022/02/17 07:46:36;;;;;;;0.60;0.60;;;;;;;;;;2065626;28;20026;-65
2022/02/17 07:47:54;;;;;;;0.93;0.73;;;;;;;;;;2066748;28;20026;-65
2022/02/17 07:49:13;;;;;;;1.27;0.80;;;;;;;;;;2067618;28;20026;-65
2022/02/17 07:50:33;;;;;;;1.00;0.88;;;;;;;;;;2068482;28;20026;-65
2022/02/17 07:51:52;;;;;;;4.22;1.10;;;;;;;;;;2067942;28;20476;-64
2022/02/17 07:53:11;;;;;;;1.27;1.00;;;;;;;;;;2067117;28;20050;-65
2022/02/17 07:54:30;;;;;;;1.75;1.13;;;;;;;;;;2067618;28;20069;-67
2022/02/17 07:55:49;;;;;;;1.50;1.20;;;;;;;;;;2066608;28;20468;-66
2022/02/17 07:57:08;;;;;;;0.82;0.80;;;;;;;;;;2068858;28;20209;-66